sensor_id;sensor_type;location;lat;lon;timestamp;noise_LAeq;noise_LA_min;noise_LA_max;noise_LA01;noise_LA95
76261;Laerm;65076;52.362;6.588;2023-02-13T00:01:22;35.28;32.06;43.21;;
76261;Laerm;65076;52.362;6.588;2023-02-13T00:03:50;35.42;32.30;41.04;;
76261;Laerm;65076;52.362;6.588;2023-02-13T00:06:18;38.58;32.95;56.94;;
76261;Laerm;65076;52.362;6.588;2023-02-13T00:08:46;35.46;32.29;41.04;;
76261;Laerm;65076;52.362;6.588;2023-02-13T00:11:14;35.69;32.55;53.32;;
76261;Laerm;65076;52.362;6.588;2023-02-13T00:13:42;37.91;32.98;48.65;;
76261;Laerm;65076;52.362;6.588;2023-02-13T00:16:12;39.75;32.66;53.95;;
76261;Laerm;65076;52.362;6.588;2023-02-13T00:18:40;35.45;32.53;38.65;;
76261;Laerm;65076;52.362;6.588;2023-02-13T00:21:10;39.75;32.90;56.96;;
76261;Laerm;65076;52.362;6.588;2023-02-13T00:23:39;35.83;32.25;39.66;;
76261;Laerm;65076;52.362;6.588;2023-02-13T00:26:10;35.60;32.79;39.37;;
76261;Laerm;65076;52.362;6.588;2023-02-13T00:28:39;35.72;32.51;39.31;;
76261;Laerm;65076;52.362;6.588;2023-02-13T00:31:10;36.25;32.95;44.13;;
76261;Laerm;65076;52.362;6.588;2023-02-13T00:33:40;36.32;33.56;39.82;;
76261;Laerm;65076;52.362;6.588;2023-02-13T00:36:12;36.50;33.60;40.90;;
76261;Laerm;65076;52.362;6.588;2023-02-13T00:38:41;35.93;32.44;39.59;;
76261;Laerm;65076;52.362;6.588;2023-02-13T00:41:10;36.54;33.47;45.72;;
76261;Laerm;65076;52.362;6.588;2023-02-13T00:43:38;36.24;33.37;40.87;;
76261;Laerm;65076;52.362;6.588;2023-02-13T00:46:06;36.01;33.17;40.91;;
76261;Laerm;65076;52.362;6.588;2023-02-13T00:48:37;45.30;33.43;62.04;;
76261;Laerm;65076;52.362;6.588;2023-02-13T00:51:10;44.39;33.34;61.01;;
76261;Laerm;65076;52.362;6.588;2023-02-13T00:53:38;36.34;33.23;40.14;;
76261;Laerm;65076;52.362;6.588;2023-02-13T00:56:06;35.99;32.76;39.21;;
76261;Laerm;65076;52.362;6.588;2023-02-13T00:58:34;37.67;33.57;46.34;;
76261;Laerm;65076;52.362;6.588;2023-02-13T01:01:03;38.13;33.24;56.58;;
76261;Laerm;65076;52.362;6.588;2023-02-13T01:03:31;37.30;33.12;47.44;;
76261;Laerm;65076;52.362;6.588;2023-02-13T01:05:59;37.83;33.46;53.96;;
76261;Laerm;65076;52.362;6.588;2023-02-13T01:08:28;36.57;32.91;44.30;;
76261;Laerm;65076;52.362;6.588;2023-02-13T01:10:56;36.41;33.22;39.98;;
76261;Laerm;65076;52.362;6.588;2023-02-13T01:13:25;36.56;32.97;46.72;;
76261;Laerm;65076;52.362;6.588;2023-02-13T01:15:53;36.44;33.02;40.96;;
76261;Laerm;65076;52.362;6.588;2023-02-13T01:18:22;36.27;32.68;42.76;;
76261;Laerm;65076;52.362;6.588;2023-02-13T01:20:59;36.34;33.48;40.75;;
76261;Laerm;65076;52.362;6.588;2023-02-13T01:23:35;36.50;33.23;49.44;;
76261;Laerm;65076;52.362;6.588;2023-02-13T01:26:05;40.27;33.52;59.37;;
76261;Laerm;65076;52.362;6.588;2023-02-13T01:28:34;39.66;32.90;49.90;;
76261;Laerm;65076;52.362;6.588;2023-02-13T01:31:02;35.26;32.11;43.55;;
76261;Laerm;65076;52.362;6.588;2023-02-13T01:33:30;34.97;32.29;38.24;;
76261;Laerm;65076;52.362;6.588;2023-02-13T01:35:58;35.57;32.40;44.23;;
76261;Laerm;65076;52.362;6.588;2023-02-13T01:38:26;35.33;32.54;38.52;;
76261;Laerm;65076;52.362;6.588;2023-02-13T01:40:56;36.13;32.84;40.04;;
76261;Laerm;65076;52.362;6.588;2023-02-13T01:43:47;43.69;32.89;63.06;;
76261;Laerm;65076;52.362;6.588;2023-02-13T01:46:21;36.30;32.30;46.15;;
76261;Laerm;65076;52.362;6.588;2023-02-13T01:48:53;36.97;32.77;43.66;;
76261;Laerm;65076;52.362;6.588;2023-02-13T01:51:27;35.72;32.84;39.46;;
76261;Laerm;65076;52.362;6.588;2023-02-13T01:54:02;35.64;32.88;41.80;;
76261;Laerm;65076;52.362;6.588;2023-02-13T01:56:36;36.48;33.08;42.42;;
76261;Laerm;65076;52.362;6.588;2023-02-13T01:59:12;36.13;32.74;45.49;;
76261;Laerm;65076;52.362;6.588;2023-02-13T02:01:42;36.60;33.36;45.42;;
76261;Laerm;65076;52.362;6.588;2023-02-13T02:04:16;36.71;33.57;41.18;;
76261;Laerm;65076;52.362;6.588;2023-02-13T02:06:50;36.39;33.40;44.69;;
76261;Laerm;65076;52.362;6.588;2023-02-13T02:09:24;37.04;33.04;40.99;;
76261;Laerm;65076;52.362;6.588;2023-02-13T02:12:03;36.46;32.83;40.20;;
76261;Laerm;65076;52.362;6.588;2023-02-13T02:14:33;42.34;33.40;55.96;;
76261;Laerm;65076;52.362;6.588;2023-02-13T02:17:01;48.24;34.45;67.25;;
76261;Laerm;65076;52.362;6.588;2023-02-13T02:19:38;37.80;33.14;44.11;;
76261;Laerm;65076;52.362;6.588;2023-02-13T02:22:57;36.25;32.69;40.37;;
76261;Laerm;65076;52.362;6.588;2023-02-13T02:26:14;36.24;32.89;39.53;;
76261;Laerm;65076;52.362;6.588;2023-02-13T02:29:16;39.17;33.72;50.96;;
76261;Laerm;65076;52.362;6.588;2023-02-13T02:32:22;37.95;33.89;43.61;;
76261;Laerm;65076;52.362;6.588;2023-02-13T02:35:12;36.78;33.56;41.91;;
76261;Laerm;65076;52.362;6.588;2023-02-13T02:38:06;36.31;32.93;39.27;;
76261;Laerm;65076;52.362;6.588;2023-02-13T02:40:51;36.27;33.11;40.94;;
76261;Laerm;65076;52.362;6.588;2023-02-13T02:43:40;36.52;33.33;39.74;;
76261;Laerm;65076;52.362;6.588;2023-02-13T02:46:20;36.17;32.41;39.51;;
76261;Laerm;65076;52.362;6.588;2023-02-13T02:48:57;35.50;32.62;38.30;;
76261;Laerm;65076;52.362;6.588;2023-02-13T02:51:56;38.45;32.67;51.37;;
76261;Laerm;65076;52.362;6.588;2023-02-13T02:54:39;36.05;32.80;39.82;;
76261;Laerm;65076;52.362;6.588;2023-02-13T02:57:29;36.02;32.82;39.74;;
76261;Laerm;65076;52.362;6.588;2023-02-13T03:00:23;35.95;32.75;45.74;;
76261;Laerm;65076;52.362;6.588;2023-02-13T03:03:17;35.92;32.61;39.42;;
76261;Laerm;65076;52.362;6.588;2023-02-13T03:06:09;35.91;32.90;39.32;;
76261;Laerm;65076;52.362;6.588;2023-02-13T03:08:43;41.46;33.04;56.13;;
76261;Laerm;65076;52.362;6.588;2023-02-13T03:11:30;41.22;33.52;56.62;;
76261;Laerm;65076;52.362;6.588;2023-02-13T03:14:19;42.16;33.51;61.09;;
76261;Laerm;65076;52.362;6.588;2023-02-13T03:16:48;41.83;33.26;60.23;;
76261;Laerm;65076;52.362;6.588;2023-02-13T03:19:51;36.77;33.34;40.24;;
76261;Laerm;65076;52.362;6.588;2023-02-13T03:22:59;37.96;34.05;46.95;;
76261;Laerm;65076;52.362;6.588;2023-02-13T03:25:37;37.26;33.28;42.08;;
76261;Laerm;65076;52.362;6.588;2023-02-13T03:28:16;38.07;34.26;46.11;;
76261;Laerm;65076;52.362;6.588;2023-02-13T03:31:21;40.15;33.53;52.88;;
76261;Laerm;65076;52.362;6.588;2023-02-13T03:33:58;46.25;33.95;64.23;;
76261;Laerm;65076;52.362;6.588;2023-02-13T03:36:42;40.80;34.38;52.08;;
76261;Laerm;65076;52.362;6.588;2023-02-13T03:39:43;39.04;34.39;57.15;;
76261;Laerm;65076;52.362;6.588;2023-02-13T03:42:25;47.89;34.25;65.80;;
76261;Laerm;65076;52.362;6.588;2023-02-13T03:45:07;51.75;33.71;70.35;;
76261;Laerm;65076;52.362;6.588;2023-02-13T03:48:00;53.80;35.28;71.36;;
76261;Laerm;65076;52.362;6.588;2023-02-13T03:50:41;52.98;35.67;72.11;;
76261;Laerm;65076;52.362;6.588;2023-02-13T03:53:12;53.65;35.01;72.23;;
76261;Laerm;65076;52.362;6.588;2023-02-13T03:55:46;55.04;35.70;72.47;;
76261;Laerm;65076;52.362;6.588;2023-02-13T03:58:37;54.35;35.76;73.57;;
76261;Laerm;65076;52.362;6.588;2023-02-13T04:01:29;53.58;35.29;72.91;;
76261;Laerm;65076;52.362;6.588;2023-02-13T04:04:08;56.14;35.55;73.73;;
76261;Laerm;65076;52.362;6.588;2023-02-13T04:06:46;55.03;35.50;69.86;;
76261;Laerm;65076;52.362;6.588;2023-02-13T04:09:16;51.66;37.07;70.65;;
76261;Laerm;65076;52.362;6.588;2023-02-13T04:11:53;58.33;38.55;74.47;;
76261;Laerm;65076;52.362;6.588;2023-02-13T04:14:29;53.67;38.31;71.39;;
76261;Laerm;65076;52.362;6.588;2023-02-13T04:17:05;54.49;37.57;71.88;;
76261;Laerm;65076;52.362;6.588;2023-02-13T04:19:34;53.27;36.20;72.24;;
76261;Laerm;65076;52.362;6.588;2023-02-13T04:22:02;51.24;36.64;70.79;;
76261;Laerm;65076;52.362;6.588;2023-02-13T04:24:30;53.08;36.26;71.37;;
76261;Laerm;65076;52.362;6.588;2023-02-13T04:27:00;49.84;35.72;71.93;;
76261;Laerm;65076;52.362;6.588;2023-02-13T04:29:28;51.95;36.12;70.80;;
76261;Laerm;65076;52.362;6.588;2023-02-13T04:31:56;52.99;36.60;71.11;;
76261;Laerm;65076;52.362;6.588;2023-02-13T04:34:24;54.09;37.76;71.10;;
76261;Laerm;65076;52.362;6.588;2023-02-13T04:36:52;58.17;37.80;76.32;;
76261;Laerm;65076;52.362;6.588;2023-02-13T04:39:20;54.23;37.71;72.34;;
76261;Laerm;65076;52.362;6.588;2023-02-13T04:41:48;58.93;37.23;76.25;;
76261;Laerm;65076;52.362;6.588;2023-02-13T04:44:17;54.15;37.68;73.22;;
76261;Laerm;65076;52.362;6.588;2023-02-13T04:46:45;52.60;38.35;69.85;;
76261;Laerm;65076;52.362;6.588;2023-02-13T04:49:13;53.33;37.82;71.39;;
76261;Laerm;65076;52.362;6.588;2023-02-13T04:51:41;53.37;38.34;71.44;;
76261;Laerm;65076;52.362;6.588;2023-02-13T04:54:10;55.05;37.28;69.65;;
76261;Laerm;65076;52.362;6.588;2023-02-13T04:56:40;53.02;38.07;70.33;;
76261;Laerm;65076;52.362;6.588;2023-02-13T04:59:08;56.21;36.94;72.23;;
76261;Laerm;65076;52.362;6.588;2023-02-13T05:01:37;53.75;37.13;72.94;;
76261;Laerm;65076;52.362;6.588;2023-02-13T05:04:06;49.70;36.83;67.54;;
76261;Laerm;65076;52.362;6.588;2023-02-13T05:06:34;48.93;38.13;63.80;;
76261;Laerm;65076;52.362;6.588;2023-02-13T05:09:03;58.22;40.67;75.96;;
76261;Laerm;65076;52.362;6.588;2023-02-13T05:11:30;61.55;39.47;75.70;;
76261;Laerm;65076;52.362;6.588;2023-02-13T05:13:58;55.63;41.24;69.16;;
76261;Laerm;65076;52.362;6.588;2023-02-13T05:16:26;53.36;40.27;70.54;;
76261;Laerm;65076;52.362;6.588;2023-02-13T05:18:56;53.70;41.10;67.85;;
76261;Laerm;65076;52.362;6.588;2023-02-13T05:21:24;57.45;40.09;75.75;;
76261;Laerm;65076;52.362;6.588;2023-02-13T05:24:09;58.94;41.86;73.00;;
76261;Laerm;65076;52.362;6.588;2023-02-13T05:26:37;58.06;41.61;73.09;;
76261;Laerm;65076;52.362;6.588;2023-02-13T05:29:05;57.70;41.04;76.91;;
76261;Laerm;65076;52.362;6.588;2023-02-13T05:31:46;53.52;41.69;71.35;;
76261;Laerm;65076;52.362;6.588;2023-02-13T05:34:16;47.93;41.87;59.22;;
76261;Laerm;65076;52.362;6.588;2023-02-13T05:36:44;60.48;43.48;77.82;;
76261;Laerm;65076;52.362;6.588;2023-02-13T05:39:12;58.82;44.25;72.41;;
76261;Laerm;65076;52.362;6.588;2023-02-13T05:41:41;62.23;43.95;76.45;;
76261;Laerm;65076;52.362;6.588;2023-02-13T05:44:10;56.56;43.88;69.53;;
76261;Laerm;65076;52.362;6.588;2023-02-13T05:46:40;55.73;43.89;70.10;;
76261;Laerm;65076;52.362;6.588;2023-02-13T05:49:10;55.79;42.59;68.67;;
76261;Laerm;65076;52.362;6.588;2023-02-13T05:51:40;54.62;42.71;71.91;;
76261;Laerm;65076;52.362;6.588;2023-02-13T05:54:09;57.76;45.07;70.03;;
76261;Laerm;65076;52.362;6.588;2023-02-13T05:56:37;60.13;43.06;75.93;;
76261;Laerm;65076;52.362;6.588;2023-02-13T05:59:07;55.04;44.70;70.85;;
76261;Laerm;65076;52.362;6.588;2023-02-13T06:01:35;61.81;44.08;76.31;;
76261;Laerm;65076;52.362;6.588;2023-02-13T06:04:03;62.41;43.58;74.93;;
76261;Laerm;65076;52.362;6.588;2023-02-13T06:06:32;58.20;44.38;74.48;;
76261;Laerm;65076;52.362;6.588;2023-02-13T06:09:02;61.06;44.92;76.89;;
76261;Laerm;65076;52.362;6.588;2023-02-13T06:11:31;62.95;45.65;78.54;;
76261;Laerm;65076;52.362;6.588;2023-02-13T06:13:59;59.33;44.54;73.17;;
76261;Laerm;65076;52.362;6.588;2023-02-13T06:16:27;56.08;44.16;71.94;;
76261;Laerm;65076;52.362;6.588;2023-02-13T06:18:56;61.43;46.09;75.65;;
76261;Laerm;65076;52.362;6.588;2023-02-13T06:21:25;58.60;45.12;73.58;;
76261;Laerm;65076;52.362;6.588;2023-02-13T06:23:53;58.20;44.38;69.97;;
76261;Laerm;65076;52.362;6.588;2023-02-13T06:26:22;57.25;46.55;68.59;;
76261;Laerm;65076;52.362;6.588;2023-02-13T06:28:50;56.08;44.76;70.84;;
76261;Laerm;65076;52.362;6.588;2023-02-13T06:31:18;58.75;47.43;71.28;;
76261;Laerm;65076;52.362;6.588;2023-02-13T06:33:47;58.46;46.19;68.24;;
76261;Laerm;65076;52.362;6.588;2023-02-13T06:36:15;58.43;44.12;68.53;;
76261;Laerm;65076;52.362;6.588;2023-02-13T06:38:43;61.01;45.63;75.19;;
76261;Laerm;65076;52.362;6.588;2023-02-13T06:41:11;62.00;48.17;78.36;;
76261;Laerm;65076;52.362;6.588;2023-02-13T06:43:40;56.77;44.28;68.24;;
76261;Laerm;65076;52.362;6.588;2023-02-13T06:46:09;58.74;43.82;68.38;;
76261;Laerm;65076;52.362;6.588;2023-02-13T06:48:39;58.93;43.78;70.47;;
76261;Laerm;65076;52.362;6.588;2023-02-13T06:51:07;59.82;44.87;75.62;;
76261;Laerm;65076;52.362;6.588;2023-02-13T06:53:35;57.82;43.99;70.89;;
76261;Laerm;65076;52.362;6.588;2023-02-13T06:56:04;59.35;45.16;74.91;;
76261;Laerm;65076;52.362;6.588;2023-02-13T06:58:32;56.79;43.75;68.61;;
76261;Laerm;65076;52.362;6.588;2023-02-13T07:01:02;60.09;42.90;72.75;;
76261;Laerm;65076;52.362;6.588;2023-02-13T07:03:30;58.31;44.60;68.85;;
76261;Laerm;65076;52.362;6.588;2023-02-13T07:05:58;57.74;44.01;69.16;;
76261;Laerm;65076;52.362;6.588;2023-02-13T07:08:26;61.10;46.73;76.64;;
76261;Laerm;65076;52.362;6.588;2023-02-13T07:10:54;62.29;45.95;76.02;;
76261;Laerm;65076;52.362;6.588;2023-02-13T07:13:23;53.37;42.89;65.63;;
76261;Laerm;65076;52.362;6.588;2023-02-13T07:15:51;67.65;45.35;83.91;;
76261;Laerm;65076;52.362;6.588;2023-02-13T07:18:20;57.49;44.03;66.91;;
76261;Laerm;65076;52.362;6.588;2023-02-13T07:20:48;59.47;44.43;75.68;;
76261;Laerm;65076;52.362;6.588;2023-02-13T07:23:16;54.43;44.00;64.39;;
76261;Laerm;65076;52.362;6.588;2023-02-13T07:25:44;58.44;45.90;70.85;;
76261;Laerm;65076;52.362;6.588;2023-02-13T07:28:12;54.46;42.63;70.76;;
76261;Laerm;65076;52.362;6.588;2023-02-13T07:30:40;57.96;46.02;70.42;;
76261;Laerm;65076;52.362;6.588;2023-02-13T07:33:09;57.43;43.35;75.54;;
76261;Laerm;65076;52.362;6.588;2023-02-13T07:35:45;56.11;44.45;69.01;;
76261;Laerm;65076;52.362;6.588;2023-02-13T07:38:13;60.49;47.48;75.67;;
76261;Laerm;65076;52.362;6.588;2023-02-13T07:40:41;62.97;44.84;76.24;;
76261;Laerm;65076;52.362;6.588;2023-02-13T07:43:10;55.20;43.14;69.91;;
76261;Laerm;65076;52.362;6.588;2023-02-13T07:45:39;49.71;41.95;60.82;;
76261;Laerm;65076;52.362;6.588;2023-02-13T07:48:07;68.15;43.41;80.70;;
76261;Laerm;65076;52.362;6.588;2023-02-13T07:50:35;59.59;44.22;73.84;;
76261;Laerm;65076;52.362;6.588;2023-02-13T07:53:04;57.21;41.53;72.11;;
76261;Laerm;65076;52.362;6.588;2023-02-13T07:55:32;53.55;43.43;63.66;;
76261;Laerm;65076;52.362;6.588;2023-02-13T07:58:00;53.95;42.97;65.08;;
76261;Laerm;65076;52.362;6.588;2023-02-13T08:00:28;59.52;42.85;75.36;;
76261;Laerm;65076;52.362;6.588;2023-02-13T08:03:00;54.25;44.64;69.77;;
76261;Laerm;65076;52.362;6.588;2023-02-13T08:05:31;56.48;41.60;74.01;;
76261;Laerm;65076;52.362;6.588;2023-02-13T08:07:59;56.12;40.93;71.22;;
76261;Laerm;65076;52.362;6.588;2023-02-13T08:10:29;58.41;39.83;76.71;;
76261;Laerm;65076;52.362;6.588;2023-02-13T08:13:15;55.33;39.51;68.53;;
76261;Laerm;65076;52.362;6.588;2023-02-13T08:15:44;56.62;42.75;71.14;;
76261;Laerm;65076;52.362;6.588;2023-02-13T08:18:12;53.25;40.89;68.64;;
76261;Laerm;65076;52.362;6.588;2023-02-13T08:20:40;64.46;43.01;77.06;;
76261;Laerm;65076;52.362;6.588;2023-02-13T08:23:10;54.30;41.46;67.14;;
76261;Laerm;65076;52.362;6.588;2023-02-13T08:25:42;57.14;47.25;71.78;;
76261;Laerm;65076;52.362;6.588;2023-02-13T08:28:10;55.23;41.82;69.35;;
76261;Laerm;65076;52.362;6.588;2023-02-13T08:30:38;57.57;41.95;71.64;;
76261;Laerm;65076;52.362;6.588;2023-02-13T08:33:07;56.57;43.21;65.37;;
76261;Laerm;65076;52.362;6.588;2023-02-13T08:35:35;52.95;40.67;65.55;;
76261;Laerm;65076;52.362;6.588;2023-02-13T08:38:04;57.11;40.56;73.53;;
76261;Laerm;65076;52.362;6.588;2023-02-13T08:40:32;59.80;42.92;77.46;;
76261;Laerm;65076;52.362;6.588;2023-02-13T08:43:04;54.76;43.93;65.89;;
76261;Laerm;65076;52.362;6.588;2023-02-13T08:45:35;54.50;37.91;66.25;;
76261;Laerm;65076;52.362;6.588;2023-02-13T08:48:03;53.83;40.70;68.35;;
76261;Laerm;65076;52.362;6.588;2023-02-13T08:50:31;60.58;39.08;75.75;;
76261;Laerm;65076;52.362;6.588;2023-02-13T08:53:01;55.07;38.89;72.02;;
76261;Laerm;65076;52.362;6.588;2023-02-13T08:55:29;58.58;40.79;75.55;;
76261;Laerm;65076;52.362;6.588;2023-02-13T08:57:59;52.39;40.44;64.68;;
76261;Laerm;65076;52.362;6.588;2023-02-13T09:00:30;57.00;49.60;72.42;;
76261;Laerm;65076;52.362;6.588;2023-02-13T09:03:00;53.14;40.83;65.31;;
76261;Laerm;65076;52.362;6.588;2023-02-13T09:05:30;55.29;40.19;69.10;;
76261;Laerm;65076;52.362;6.588;2023-02-13T09:07:59;56.36;43.25;73.12;;
76261;Laerm;65076;52.362;6.588;2023-02-13T09:10:30;60.36;40.44;76.16;;
76261;Laerm;65076;52.362;6.588;2023-02-13T09:12:59;56.29;42.01;68.00;;
76261;Laerm;65076;52.362;6.588;2023-02-13T09:15:29;54.55;40.95;67.59;;
76261;Laerm;65076;52.362;6.588;2023-02-13T09:17:58;55.75;37.80;69.71;;
76261;Laerm;65076;52.362;6.588;2023-02-13T09:20:26;68.13;40.73;79.93;;
76261;Laerm;65076;52.362;6.588;2023-02-13T09:22:54;47.41;37.19;61.86;;
76261;Laerm;65076;52.362;6.588;2023-02-13T09:25:23;55.77;38.27;71.22;;
76261;Laerm;65076;52.362;6.588;2023-02-13T09:27:51;51.56;37.78;63.77;;
76261;Laerm;65076;52.362;6.588;2023-02-13T09:30:20;54.54;41.58;71.33;;
76261;Laerm;65076;52.362;6.588;2023-02-13T09:32:52;55.02;37.65;70.31;;
76261;Laerm;65076;52.362;6.588;2023-02-13T09:35:21;51.23;38.58;62.69;;
76261;Laerm;65076;52.362;6.588;2023-02-13T09:37:50;57.39;38.30;75.79;;
76261;Laerm;65076;52.362;6.588;2023-02-13T09:40:24;59.99;38.71;75.33;;
76261;Laerm;65076;52.362;6.588;2023-02-13T09:43:06;62.30;41.88;76.60;;
76261;Laerm;65076;52.362;6.588;2023-02-13T09:45:40;50.98;39.09;63.69;;
76261;Laerm;65076;52.362;6.588;2023-02-13T09:48:18;54.40;39.23;67.66;;
76261;Laerm;65076;52.362;6.588;2023-02-13T09:50:53;60.88;39.36;76.22;;
76261;Laerm;65076;52.362;6.588;2023-02-13T09:53:23;53.56;37.66;67.73;;
76261;Laerm;65076;52.362;6.588;2023-02-13T09:56:06;54.75;36.80;67.24;;
76261;Laerm;65076;52.362;6.588;2023-02-13T09:58:42;53.90;41.15;71.64;;
76261;Laerm;65076;52.362;6.588;2023-02-13T10:01:23;51.97;36.45;62.40;;
76261;Laerm;65076;52.362;6.588;2023-02-13T10:04:14;55.53;40.68;65.72;;
76261;Laerm;65076;52.362;6.588;2023-02-13T10:06:57;55.70;39.44;69.00;;
76261;Laerm;65076;52.362;6.588;2023-02-13T10:09:39;58.33;41.57;78.57;;
76261;Laerm;65076;52.362;6.588;2023-02-13T10:12:23;59.75;37.60;76.16;;
76261;Laerm;65076;52.362;6.588;2023-02-13T10:15:11;53.32;37.69;66.89;;
76261;Laerm;65076;52.362;6.588;2023-02-13T10:17:47;66.38;37.71;78.37;;
76261;Laerm;65076;52.362;6.588;2023-02-13T10:20:30;59.61;35.56;76.71;;
76261;Laerm;65076;52.362;6.588;2023-02-13T10:23:11;59.88;37.69;75.62;;
76261;Laerm;65076;52.362;6.588;2023-02-13T10:25:48;52.67;36.22;69.05;;
76261;Laerm;65076;52.362;6.588;2023-02-13T10:28:29;54.87;37.61;68.80;;
76261;Laerm;65076;52.362;6.588;2023-02-13T10:31:06;58.64;45.14;69.88;;
76261;Laerm;65076;52.362;6.588;2023-02-13T10:33:47;51.93;35.40;64.25;;
76261;Laerm;65076;52.362;6.588;2023-02-13T10:36:23;50.23;40.18;60.23;;
76261;Laerm;65076;52.362;6.588;2023-02-13T10:38:59;58.18;38.14;74.79;;
76261;Laerm;65076;52.362;6.588;2023-02-13T10:41:48;60.11;38.36;79.06;;
76261;Laerm;65076;52.362;6.588;2023-02-13T10:44:34;67.39;38.34;84.42;;
76261;Laerm;65076;52.362;6.588;2023-02-13T10:47:20;59.14;39.98;77.47;;
76261;Laerm;65076;52.362;6.588;2023-02-13T10:50:08;58.40;36.97;73.97;;
76261;Laerm;65076;52.362;6.588;2023-02-13T10:52:53;54.89;40.28;70.97;;
76261;Laerm;65076;52.362;6.588;2023-02-13T10:55:58;56.41;36.09;76.41;;
76261;Laerm;65076;52.362;6.588;2023-02-13T10:58:35;54.72;36.85;65.62;;
76261;Laerm;65076;52.362;6.588;2023-02-13T11:01:15;62.98;38.67;78.20;;
76261;Laerm;65076;52.362;6.588;2023-02-13T11:03:48;54.69;39.71;72.12;;
76261;Laerm;65076;52.362;6.588;2023-02-13T11:06:27;68.47;40.86;82.50;;
76261;Laerm;65076;52.362;6.588;2023-02-13T11:08:58;56.79;41.04;74.12;;
76261;Laerm;65076;52.362;6.588;2023-02-13T11:11:32;60.02;37.84;75.66;;
76261;Laerm;65076;52.362;6.588;2023-02-13T11:14:14;52.23;38.25;66.89;;
76261;Laerm;65076;52.362;6.588;2023-02-13T11:16:50;54.94;40.99;67.59;;
76261;Laerm;65076;52.362;6.588;2023-02-13T11:19:34;56.88;39.49;73.67;;
76261;Laerm;65076;52.362;6.588;2023-02-13T11:22:07;56.61;38.25;70.94;;
76261;Laerm;65076;52.362;6.588;2023-02-13T11:24:36;56.44;39.92;69.78;;
76261;Laerm;65076;52.362;6.588;2023-02-13T11:27:09;54.69;41.66;65.76;;
76261;Laerm;65076;52.362;6.588;2023-02-13T11:29:53;54.27;39.65;72.38;;
76261;Laerm;65076;52.362;6.588;2023-02-13T11:32:23;58.48;43.52;70.06;;
76261;Laerm;65076;52.362;6.588;2023-02-13T11:34:53;54.48;36.02;67.46;;
76261;Laerm;65076;52.362;6.588;2023-02-13T11:37:25;59.71;41.18;74.08;;
76261;Laerm;65076;52.362;6.588;2023-02-13T11:39:56;64.34;40.93;76.82;;
76261;Laerm;65076;52.362;6.588;2023-02-13T11:42:31;53.35;37.99;63.95;;
76261;Laerm;65076;52.362;6.588;2023-02-13T11:45:07;69.01;38.59;85.41;;
76261;Laerm;65076;52.362;6.588;2023-02-13T11:47:47;63.48;37.89;80.91;;
76261;Laerm;65076;52.362;6.588;2023-02-13T11:50:26;58.12;38.45;74.31;;
76261;Laerm;65076;52.362;6.588;2023-02-13T11:52:57;54.78;37.31;68.06;;
76261;Laerm;65076;52.362;6.588;2023-02-13T11:55:30;55.00;37.09;65.95;;
76261;Laerm;65076;52.362;6.588;2023-02-13T11:58:01;61.60;38.44;78.69;;
76261;Laerm;65076;52.362;6.588;2023-02-13T12:00:34;56.61;38.28;70.35;;
76261;Laerm;65076;52.362;6.588;2023-02-13T12:03:28;52.75;38.38;65.20;;
76261;Laerm;65076;52.362;6.588;2023-02-13T12:06:04;52.73;38.65;64.09;;
76261;Laerm;65076;52.362;6.588;2023-02-13T12:08:36;57.01;39.97;69.63;;
76261;Laerm;65076;52.362;6.588;2023-02-13T12:11:19;60.46;39.39;76.57;;
76261;Laerm;65076;52.362;6.588;2023-02-13T12:13:50;53.24;39.26;65.10;;
76261;Laerm;65076;52.362;6.588;2023-02-13T12:16:29;53.00;42.66;63.30;;
76261;Laerm;65076;52.362;6.588;2023-02-13T12:19:04;54.96;43.05;67.11;;
76261;Laerm;65076;52.362;6.588;2023-02-13T12:21:56;64.65;45.40;78.87;;
76261;Laerm;65076;52.362;6.588;2023-02-13T12:24:48;56.83;44.97;70.00;;
76261;Laerm;65076;52.362;6.588;2023-02-13T12:27:31;54.39;43.39;70.16;;
76261;Laerm;65076;52.362;6.588;2023-02-13T12:30:49;53.64;43.66;68.22;;
76261;Laerm;65076;52.362;6.588;2023-02-13T12:33:52;56.25;43.09;67.41;;
76261;Laerm;65076;52.362;6.588;2023-02-13T12:36:32;56.62;41.86;79.23;;
76261;Laerm;65076;52.362;6.588;2023-02-13T12:39:17;59.78;37.94;74.70;;
76261;Laerm;65076;52.362;6.588;2023-02-13T12:42:15;56.03;37.62;68.94;;
76261;Laerm;65076;52.362;6.588;2023-02-13T12:45:04;51.96;38.10;65.47;;
76261;Laerm;65076;52.362;6.588;2023-02-13T12:48:03;68.03;38.72;82.39;;
76261;Laerm;65076;52.362;6.588;2023-02-13T12:51:03;57.63;39.07;77.01;;
76261;Laerm;65076;52.362;6.588;2023-02-13T12:53:55;54.85;42.28;69.60;;
76261;Laerm;65076;52.362;6.588;2023-02-13T12:56:55;57.81;39.39;77.05;;
76261;Laerm;65076;52.362;6.588;2023-02-13T12:59:46;56.08;45.17;70.31;;
76261;Laerm;65076;52.362;6.588;2023-02-13T13:02:47;54.25;41.17;67.03;;
76261;Laerm;65076;52.362;6.588;2023-02-13T13:05:55;56.06;42.38;74.64;;
76261;Laerm;65076;52.362;6.588;2023-02-13T13:08:58;58.22;42.63;75.44;;
76261;Laerm;65076;52.362;6.588;2023-02-13T13:12:02;59.94;40.69;76.43;;
76261;Laerm;65076;52.362;6.588;2023-02-13T13:14:44;54.27;42.98;64.71;;
76261;Laerm;65076;52.362;6.588;2023-02-13T13:17:31;54.23;42.24;76.80;;
76261;Laerm;65076;52.362;6.588;2023-02-13T13:23:19;54.26;38.78;74.62;;
76261;Laerm;65076;52.362;6.588;2023-02-13T13:26:03;57.25;42.72;76.98;;
76261;Laerm;65076;52.362;6.588;2023-02-13T13:28:40;58.70;45.25;73.42;;
76261;Laerm;65076;52.362;6.588;2023-02-13T13:31:11;57.97;42.33;71.44;;
76261;Laerm;65076;52.362;6.588;2023-02-13T13:33:44;53.60;39.23;65.14;;
76261;Laerm;65076;52.362;6.588;2023-02-13T13:36:21;54.42;42.19;69.46;;
76261;Laerm;65076;52.362;6.588;2023-02-13T13:39:04;61.47;42.60;74.76;;
76261;Laerm;65076;52.362;6.588;2023-02-13T13:41:40;58.71;42.57;75.63;;
76261;Laerm;65076;52.362;6.588;2023-02-13T13:44:35;60.32;41.49;78.51;;
76261;Laerm;65076;52.362;6.588;2023-02-13T13:47:26;67.46;40.22;81.01;;
76261;Laerm;65076;52.362;6.588;2023-02-13T13:49:57;55.87;38.45;67.42;;
76261;Laerm;65076;52.362;6.588;2023-02-13T13:52:27;64.90;40.37;80.80;;
76261;Laerm;65076;52.362;6.588;2023-02-13T13:54:57;63.42;40.76;81.61;;
76261;Laerm;65076;52.362;6.588;2023-02-13T13:57:26;59.45;43.84;74.70;;
76261;Laerm;65076;52.362;6.588;2023-02-13T14:00:23;53.86;39.62;70.61;;
76261;Laerm;65076;52.362;6.588;2023-02-13T14:03:31;52.73;36.55;65.72;;
76261;Laerm;65076;52.362;6.588;2023-02-13T14:06:06;55.52;41.05;66.39;;
76261;Laerm;65076;52.362;6.588;2023-02-13T14:09:36;59.87;41.97;75.52;;
76261;Laerm;65076;52.362;6.588;2023-02-13T14:12:35;60.38;36.68;79.59;;
76261;Laerm;65076;52.362;6.588;2023-02-13T14:15:50;51.63;37.77;64.67;;
76261;Laerm;65076;52.362;6.588;2023-02-13T14:18:22;54.97;38.93;70.97;;
76261;Laerm;65076;52.362;6.588;2023-02-13T14:20:52;63.84;41.37;78.30;;
76261;Laerm;65076;52.362;6.588;2023-02-13T14:26:31;57.37;37.00;76.62;;
76261;Laerm;65076;52.362;6.588;2023-02-13T14:29:27;52.63;38.44;64.92;;
76261;Laerm;65076;52.362;6.588;2023-02-13T14:32:16;54.68;42.39;69.06;;
76261;Laerm;65076;52.362;6.588;2023-02-13T14:34:54;56.44;39.38;75.11;;
76261;Laerm;65076;52.362;6.588;2023-02-13T14:37:31;59.63;41.70;75.75;;
76261;Laerm;65076;52.362;6.588;2023-02-13T14:40:44;54.46;40.27;69.24;;